createdAt,value
2022-10-24T00:01:48.683Z,1.27
2022-10-24T00:07:12.718Z,1.40
2022-10-24T00:12:37.716Z,1.40
2022-10-24T00:18:04.734Z,1.48
2022-10-24T00:23:29.677Z,1.40
2022-10-24T00:28:55.760Z,1.40
2022-10-24T00:34:23.726Z,1.35
2022-10-24T00:39:47.827Z,1.30
2022-10-24T00:45:42.746Z,1.20
2022-10-24T00:51:13.726Z,1.20
2022-10-24T00:56:42.800Z,1.30
2022-10-24T01:02:06.759Z,1.27
2022-10-24T01:07:53.720Z,1.23
2022-10-24T01:13:21.024Z,1.38
2022-10-24T01:18:49.785Z,1.25
2022-10-24T01:24:38.761Z,1.30
2022-10-24T01:30:16.737Z,1.42
2022-10-24T01:35:46.748Z,1.50
2022-10-24T01:41:14.739Z,1.27
2022-10-24T01:46:45.742Z,1.40
2022-10-24T01:52:14.758Z,1.40
2022-10-24T01:57:41.746Z,1.50
2022-10-24T02:03:11.786Z,1.45
2022-10-24T02:08:41.863Z,1.30
2022-10-24T02:14:09.756Z,1.45
2022-10-24T02:19:37.774Z,1.30
2022-10-24T02:25:07.763Z,1.48
2022-10-24T02:30:34.811Z,1.60
2022-10-24T02:36:03.802Z,1.50
2022-10-24T02:41:31.805Z,1.30
2022-10-24T02:46:57.819Z,1.33
2022-10-24T02:52:25.776Z,1.70
2022-10-24T02:57:49.785Z,1.45
2022-10-24T03:03:14.787Z,1.55
2022-10-24T03:08:41.812Z,1.52
2022-10-24T03:14:06.817Z,1.73
2022-10-24T03:19:24.811Z,1.45
2022-10-24T03:24:55.482Z,1.70
2022-10-24T03:30:21.835Z,1.45
2022-10-24T03:35:46.847Z,1.60
2022-10-24T03:41:14.827Z,1.40
2022-10-24T03:46:38.830Z,1.58
2022-10-24T03:52:03.829Z,1.67
2022-10-24T03:57:30.836Z,1.50
2022-10-24T04:02:57.890Z,1.65
2022-10-24T04:08:22.818Z,1.50
2022-10-24T04:13:49.895Z,1.20
2022-10-24T04:19:13.838Z,1.52
2022-10-24T04:24:45.841Z,1.40
2022-10-24T04:30:17.860Z,1.45
2022-10-24T04:35:41.869Z,1.30
2022-10-24T04:41:09.821Z,1.30
2022-10-24T04:46:38.842Z,1.60
2022-10-24T04:52:03.853Z,1.40
2022-10-24T04:57:27.941Z,1.50
2022-10-24T05:02:56.828Z,1.35
2022-10-24T05:08:26.047Z,1.40
2022-10-24T05:13:50.872Z,1.60
2022-10-24T05:19:17.869Z,1.50
2022-10-24T05:24:42.901Z,1.40
2022-10-24T05:30:07.969Z,1.27
2022-10-24T05:35:35.862Z,1.60
2022-10-24T05:41:00.902Z,1.35
2022-10-24T05:46:25.910Z,1.60
2022-10-24T05:51:52.911Z,1.30
2022-10-24T05:57:18.322Z,1.25
2022-10-24T06:02:43.138Z,1.33
2022-10-24T06:08:10.907Z,1.40
2022-10-24T06:13:36.424Z,1.33
2022-10-24T06:19:01.915Z,1.40
2022-10-24T06:24:28.938Z,3.13
2022-10-24T06:29:53.937Z,1.42
2022-10-24T06:35:19.920Z,1.85
2022-10-24T06:40:48.897Z,1.30
2022-10-24T06:46:12.905Z,1.17
2022-10-24T06:51:37.914Z,1.05
2022-10-24T06:57:05.320Z,1.40
2022-10-24T07:02:30.003Z,1.60
2022-10-24T07:07:56.053Z,1.20
2022-10-24T07:13:23.014Z,1.55
2022-10-24T07:18:47.952Z,1.33
2022-10-24T07:24:13.935Z,1.20
2022-10-24T07:29:41.958Z,1.40
2022-10-24T07:35:07.105Z,1.13
2022-10-24T07:40:31.949Z,1.23
2022-10-24T07:51:43.969Z,1.08
2022-10-24T07:57:08.974Z,1.20
2022-10-24T08:02:37.078Z,0.98
2022-10-24T08:08:24.681Z,1.20
2022-10-24T08:13:45.995Z,1.50
2022-10-24T08:19:22.008Z,1.35
2022-10-24T08:24:46.989Z,1.40
2022-10-24T08:30:10.973Z,1.30
2022-10-24T08:35:39.021Z,1.40
2022-10-24T08:41:03.982Z,1.23
2022-10-24T08:46:55.031Z,1.20
2022-10-24T08:52:33.023Z,1.20
2022-10-24T08:58:02.006Z,1.30
2022-10-24T09:03:55.940Z,1.20
2022-10-24T09:09:30.074Z,1.30
2022-10-24T09:14:56.012Z,1.30
2022-10-24T09:20:32.075Z,1.30
2022-10-24T09:26:10.132Z,1.30
2022-10-24T09:31:37.182Z,1.30
2022-10-24T09:37:01.066Z,1.45
2022-10-24T09:42:31.037Z,1.30
2022-10-24T09:47:55.014Z,1.13
2022-10-24T09:53:33.048Z,1.00
2022-10-24T09:59:00.039Z,1.50
2022-10-24T10:04:27.075Z,1.30
2022-10-24T10:09:55.601Z,1.40
2022-10-24T10:15:36.066Z,1.45
2022-10-24T10:21:00.074Z,1.20
2022-10-24T10:26:38.057Z,1.40
2022-10-24T10:32:14.048Z,1.30
2022-10-24T10:37:43.369Z,1.33
2022-10-24T10:43:23.117Z,1.23
2022-10-24T10:49:02.099Z,1.10
2022-10-24T10:54:57.051Z,1.30
2022-10-24T11:00:26.081Z,1.20
2022-10-24T11:06:02.090Z,1.50
2022-10-24T11:11:32.075Z,1.17
2022-10-24T11:16:59.095Z,1.30
2022-10-24T11:22:33.103Z,1.40
2022-10-24T11:28:09.096Z,1.27
2022-10-24T11:33:37.139Z,1.25
2022-10-24T11:39:11.110Z,1.40
2022-10-24T11:44:55.158Z,1.08
2022-10-24T11:50:26.128Z,1.08
2022-10-24T11:56:00.119Z,0.95
2022-10-24T12:01:48.101Z,1.00
2022-10-24T12:07:41.129Z,0.68
2022-10-24T12:13:27.119Z,0.80
2022-10-24T12:18:56.115Z,0.90
2022-10-24T12:24:22.123Z,0.90
2022-10-24T12:29:56.115Z,0.80
2022-10-24T12:36:03.160Z,0.88
2022-10-24T12:41:55.174Z,0.88
2022-10-24T12:47:45.276Z,0.80
2022-10-24T12:53:21.141Z,0.80
2022-10-24T12:58:49.141Z,0.70
2022-10-24T13:04:47.136Z,0.88
2022-10-24T13:10:25.129Z,0.90
2022-10-24T13:15:56.307Z,1.00
2022-10-24T13:21:32.293Z,0.70
2022-10-24T13:27:27.182Z,0.70
2022-10-24T13:32:52.194Z,0.80
2022-10-24T13:38:17.222Z,0.70
2022-10-24T13:43:52.174Z,0.75
2022-10-24T13:49:17.242Z,0.90
2022-10-24T13:54:46.275Z,0.90
2022-10-24T14:00:15.180Z,0.90
2022-10-24T14:05:44.197Z,1.10
2022-10-24T14:11:10.235Z,0.90
2022-10-24T14:16:41.026Z,0.90
2022-10-24T14:22:05.203Z,1.00
2022-10-24T14:27:37.215Z,1.02
2022-10-24T14:33:17.217Z,1.00
2022-10-24T14:38:43.215Z,1.20
2022-10-24T14:44:11.235Z,1.30
2022-10-24T14:49:45.232Z,1.48
2022-10-24T14:55:13.224Z,1.05
2022-10-24T15:00:40.220Z,1.17
2022-10-24T15:06:17.239Z,1.00
2022-10-24T15:11:44.224Z,1.00
2022-10-24T15:17:12.236Z,0.80
2022-10-24T15:22:45.249Z,1.10
2022-10-24T15:28:18.233Z,1.20
2022-10-24T15:33:43.236Z,1.38
2022-10-24T15:39:16.326Z,1.20
2022-10-24T15:44:42.239Z,1.20
2022-10-24T15:50:06.270Z,1.10
2022-10-24T15:55:37.250Z,1.13
2022-10-24T16:01:01.372Z,1.52
2022-10-24T16:06:27.233Z,1.30
2022-10-24T16:11:54.269Z,1.35
2022-10-24T16:17:19.283Z,1.35
2022-10-24T16:22:43.301Z,1.30
2022-10-24T16:28:17.743Z,1.30
2022-10-24T16:33:44.366Z,1.20
2022-10-24T16:39:09.302Z,1.30
2022-10-24T16:44:38.285Z,1.45
2022-10-24T16:50:02.273Z,1.40
2022-10-24T16:55:27.308Z,1.10
2022-10-24T17:00:54.410Z,1.20
2022-10-24T17:06:19.313Z,1.50
2022-10-24T17:11:46.024Z,1.20
2022-10-24T17:17:14.301Z,1.42
2022-10-24T17:22:39.321Z,1.60
2022-10-24T17:28:04.308Z,1.80
2022-10-24T17:33:35.106Z,1.35
2022-10-24T17:39:10.491Z,1.52
2022-10-24T17:44:35.323Z,1.30
2022-10-24T17:50:03.321Z,1.33
2022-10-24T17:55:45.788Z,1.98
2022-10-24T18:01:17.428Z,1.70
2022-10-24T18:06:45.338Z,1.85
2022-10-24T18:12:09.354Z,1.90
2022-10-24T18:17:34.360Z,1.60
2022-10-24T18:23:01.647Z,1.65
2022-10-24T18:28:26.535Z,1.73
2022-10-24T18:33:50.338Z,1.77
2022-10-24T18:39:19.494Z,1.60
2022-10-24T18:44:50.922Z,1.85
2022-10-24T18:50:21.354Z,1.58
2022-10-24T18:55:52.353Z,2.03
2022-10-24T19:01:26.487Z,1.93
2022-10-24T19:06:51.388Z,1.90
2022-10-24T19:12:19.467Z,1.80
2022-10-24T19:17:43.367Z,1.88
2022-10-24T19:23:11.374Z,1.83
2022-10-24T19:28:38.363Z,1.63
2022-10-24T19:34:03.373Z,1.60
2022-10-24T19:39:30.332Z,1.55
2022-10-24T19:45:03.406Z,1.95
2022-10-24T19:50:28.466Z,1.60
2022-10-24T19:55:54.395Z,1.77
2022-10-24T20:01:26.579Z,1.77
2022-10-24T20:06:53.415Z,1.85
2022-10-24T20:12:18.408Z,1.80
2022-10-24T20:17:46.422Z,1.60
2022-10-24T20:23:10.417Z,1.50
2022-10-24T20:28:41.553Z,1.60
2022-10-24T20:34:11.422Z,1.50
2022-10-24T20:39:35.435Z,1.67
2022-10-24T20:45:00.431Z,1.40
2022-10-24T20:50:27.423Z,1.60
2022-10-24T20:55:52.572Z,1.60
2022-10-24T21:01:21.477Z,1.60
2022-10-24T21:06:49.411Z,1.67
2022-10-24T21:12:13.419Z,1.63
2022-10-24T21:17:38.453Z,1.60
2022-10-24T21:23:05.462Z,1.60
2022-10-24T21:28:36.463Z,1.70
2022-10-24T21:34:01.533Z,1.55
2022-10-24T21:39:30.421Z,1.58
2022-10-24T21:44:55.460Z,1.40
2022-10-24T21:50:20.474Z,1.55
2022-10-24T21:55:48.475Z,1.45
2022-10-24T22:01:13.573Z,1.40
2022-10-24T22:06:40.459Z,1.60
2022-10-24T22:12:07.477Z,1.45
2022-10-24T22:17:32.479Z,1.27
2022-10-24T22:22:56.458Z,1.50
2022-10-24T22:28:24.477Z,1.58
2022-10-24T22:33:52.580Z,1.50
2022-10-24T22:39:23.509Z,1.60
2022-10-24T22:44:51.513Z,1.80
2022-10-24T22:50:28.494Z,1.55
2022-10-24T22:55:59.506Z,1.60
2022-10-24T23:01:45.610Z,1.70
2022-10-24T23:07:13.597Z,1.80
2022-10-24T23:12:39.512Z,1.55
2022-10-24T23:18:07.539Z,1.75
2022-10-24T23:23:33.515Z,1.77
2022-10-24T23:29:09.512Z,1.40
2022-10-24T23:34:37.536Z,1.58
2022-10-24T23:40:02.532Z,1.40
2022-10-24T23:45:30.510Z,1.38
2022-10-24T23:51:05.551Z,1.50
2022-10-24T23:56:32.538Z,1.40
